Time,TemperatureF,DewpointF,PressureIn,WindDirection,WindDirectionDegrees,WindSpeedMPH,WindSpeedGustMPH,Humidity,HourlyPrecipIn,Conditions,Clouds,dailyrainin,SolarRadiationWatts/m^2,SoftwareType,DateUTC
2013-01-03 00:22:00,16.0,11.0,-100.00,ENE,61,10.0,16.0,80,0.00,,,0.00,1.000000,,2013-01-03 08:22:00,
2013-01-03 00:32:00,16.0,11.0,-100.00,ENE,61,10.0,16.0,80,0.00,,,0.00,1.000000,,2013-01-03 08:32:00,
2013-01-03 00:42:00,16.0,11.0,-100.00,ENE,61,10.0,16.0,80,0.00,,,0.00,1.000000,,2013-01-03 08:42:00,
2013-01-03 00:52:00,16.0,11.0,-100.00,ENE,61,10.0,16.0,80,0.00,,,0.00,1.000000,,2013-01-03 08:52:00,
2013-01-03 01:22:00,17.0,12.0,-100.00,ENE,58,9.0,14.0,81,0.00,,,-99.99,1.000000,,2013-01-03 09:22:00,
2013-01-03 01:33:00,17.0,12.0,-100.00,ENE,58,9.0,14.0,81,0.00,,,-99.99,1.000000,,2013-01-03 09:33:00,
2013-01-03 01:42:00,17.0,12.0,-100.00,ENE,58,9.0,14.0,81,0.00,,,-99.99,1.000000,,2013-01-03 09:42:00,
2013-01-03 01:52:00,17.0,12.0,-100.00,ENE,58,9.0,14.0,81,0.00,,,-99.99,1.000000,,2013-01-03 09:52:00,
2013-01-03 02:22:00,14.0,10.0,-100.00,ENE,61,9.0,14.0,83,0.00,,,0.00,1.000000,,2013-01-03 10:22:00,
2013-01-03 02:32:00,14.0,10.0,-100.00,ENE,61,9.0,14.0,83,0.00,,,0.00,1.000000,,2013-01-03 10:32:00,
2013-01-03 02:42:00,14.0,10.0,-100.00,ENE,61,9.0,14.0,83,0.00,,,0.00,1.000000,,2013-01-03 10:42:00,
2013-01-03 02:52:00,14.0,10.0,-100.00,ENE,61,9.0,14.0,83,0.00,,,0.00,1.000000,,2013-01-03 10:52:00,
2013-01-03 03:22:00,11.0,8.0,-100.00,ENE,68,8.0,12.0,88,0.00,,,0.00,1.000000,,2013-01-03 11:22:00,
2013-01-03 03:33:00,11.0,8.0,-100.00,ENE,68,8.0,12.0,88,0.00,,,0.00,1.000000,,2013-01-03 11:33:00,
2013-01-03 03:42:00,11.0,8.0,-100.00,ENE,68,8.0,12.0,88,0.00,,,0.00,1.000000,,2013-01-03 11:42:00,
2013-01-03 03:52:00,11.0,8.0,-100.00,ENE,68,8.0,12.0,88,0.00,,,0.00,1.000000,,2013-01-03 11:52:00,
2013-01-03 04:22:00,10.0,7.0,-100.00,ENE,64,9.0,14.0,87,0.00,,,0.00,1.000000,,2013-01-03 12:22:00,
2013-01-03 04:32:00,10.0,7.0,-100.00,ENE,64,9.0,14.0,87,0.00,,,0.00,1.000000,,2013-01-03 12:32:00,
2013-01-03 04:42:00,10.0,7.0,-100.00,ENE,64,9.0,14.0,87,0.00,,,0.00,1.000000,,2013-01-03 12:42:00,
2013-01-03 04:52:00,10.0,7.0,-100.00,ENE,64,9.0,14.0,87,0.00,,,0.00,1.000000,,2013-01-03 12:52:00,
2013-01-03 05:22:00,9.0,6.0,-100.00,ENE,64,8.0,12.0,88,0.00,,,0.00,1.000000,,2013-01-03 13:22:00,
2013-01-03 05:32:00,9.0,6.0,-100.00,ENE,64,8.0,12.0,88,0.00,,,0.00,1.000000,,2013-01-03 13:32:00,
2013-01-03 05:42:00,9.0,6.0,-100.00,ENE,64,8.0,12.0,88,0.00,,,0.00,1.000000,,2013-01-03 13:42:00,
2013-01-03 05:52:00,9.0,6.0,-100.00,ENE,64,8.0,12.0,88,0.00,,,0.00,1.000000,,2013-01-03 13:52:00,
2013-01-03 06:22:00,6.0,3.0,-100.00,ENE,74,8.0,12.0,86,0.00,,,0.00,1.000000,,2013-01-03 14:22:00,
2013-01-03 06:32:00,6.0,3.0,-100.00,ENE,74,8.0,12.0,86,0.00,,,0.00,1.000000,,2013-01-03 14:32:00,
2013-01-03 07:22:00,6.0,3.0,-100.00,ENE,66,8.0,11.0,86,0.00,,,0.00,1.000000,,2013-01-03 15:22:00,
2013-01-03 07:33:00,6.0,3.0,-100.00,ENE,66,8.0,11.0,86,0.00,,,0.00,1.000000,,2013-01-03 15:33:00,
2013-01-03 07:42:00,6.0,3.0,-100.00,ENE,66,8.0,11.0,86,0.00,,,0.00,1.000000,,2013-01-03 15:42:00,
2013-01-03 07:53:00,6.0,3.0,-100.00,ENE,66,8.0,11.0,86,0.00,,,0.00,1.000000,,2013-01-03 15:53:00,
2013-01-03 08:22:00,7.0,3.0,-100.00,NE,43,5.0,13.0,84,0.00,,,0.00,4.000000,,2013-01-03 16:22:00,
2013-01-03 08:33:00,7.0,3.0,-100.00,NE,43,5.0,13.0,84,0.00,,,0.00,4.000000,,2013-01-03 16:33:00,
2013-01-03 08:43:00,7.0,3.0,-100.00,NE,43,5.0,13.0,84,0.00,,,0.00,4.000000,,2013-01-03 16:43:00,
2013-01-03 08:52:00,7.0,3.0,-100.00,NE,43,5.0,13.0,84,0.00,,,0.00,4.000000,,2013-01-03 16:52:00,
2013-01-03 10:22:00,13.0,6.0,-100.00,ENE,65,8.0,11.0,74,-99.99,,,0.00,97.000000,,2013-01-03 18:22:00,
2013-01-03 10:33:00,13.0,6.0,-100.00,ENE,65,8.0,11.0,74,-99.99,,,0.00,97.000000,,2013-01-03 18:33:00,
2013-01-03 10:42:00,13.0,6.0,-100.00,ENE,65,8.0,11.0,74,-99.99,,,0.00,97.000000,,2013-01-03 18:42:00,
2013-01-03 10:53:00,13.0,6.0,-100.00,ENE,65,8.0,11.0,74,-99.99,,,0.00,97.000000,,2013-01-03 18:53:00,
2013-01-03 11:53:00,21.0,10.0,-100.00,NNE,18,4.0,12.0,62,0.00,,,0.00,126.000000,,2013-01-03 19:53:00,
2013-01-03 12:22:00,27.0,14.0,-100.00,ENE,78,3.0,8.0,57,0.00,,,-99.99,375.000000,,2013-01-03 20:22:00,
2013-01-03 12:33:00,27.0,14.0,-100.00,ENE,78,3.0,8.0,57,0.00,,,-99.99,375.000000,,2013-01-03 20:33:00,
2013-01-03 12:42:00,27.0,14.0,-100.00,ENE,78,3.0,8.0,57,0.00,,,-99.99,375.000000,,2013-01-03 20:42:00,
2013-01-03 12:53:00,27.0,14.0,-100.00,ENE,78,3.0,8.0,57,0.00,,,-99.99,375.000000,,2013-01-03 20:53:00,
2013-01-03 13:22:00,24.0,13.0,-100.00,WSW,247,3.0,7.0,62,0.00,,,0.00,369.000000,,2013-01-03 21:22:00,
2013-01-03 13:35:00,24.0,13.0,-100.00,WSW,247,3.0,7.0,62,0.00,,,0.00,369.000000,,2013-01-03 21:35:00,
2013-01-03 13:46:00,24.0,13.0,-100.00,WSW,247,3.0,7.0,62,0.00,,,0.00,369.000000,,2013-01-03 21:46:00,
2013-01-03 13:52:00,24.0,13.0,-100.00,WSW,247,3.0,7.0,62,0.00,,,0.00,369.000000,,2013-01-03 21:52:00,
2013-01-03 14:22:00,31.0,17.0,-100.00,SW,226,2.0,4.0,55,0.00,,,0.00,230.000000,,2013-01-03 22:22:00,
2013-01-03 14:32:00,31.0,17.0,-100.00,SW,226,2.0,4.0,55,0.00,,,0.00,230.000000,,2013-01-03 22:32:00,
2013-01-03 14:42:00,31.0,17.0,-100.00,SW,226,2.0,4.0,55,0.00,,,0.00,230.000000,,2013-01-03 22:42:00,
2013-01-03 14:52:00,31.0,17.0,-100.00,SW,226,2.0,4.0,55,0.00,,,0.00,230.000000,,2013-01-03 22:52:00,
2013-01-03 15:22:00,25.0,15.0,-100.00,West,280,3.0,7.0,66,0.00,,,0.00,238.000000,,2013-01-03 23:22:00,
2013-01-03 15:32:00,25.0,15.0,-100.00,West,280,3.0,7.0,66,0.00,,,0.00,238.000000,,2013-01-03 23:32:00,
2013-01-03 16:22:00,26.0,17.0,-100.00,South,190,2.0,5.0,68,-99.99,,,0.00,116.000000,,2013-01-04 00:22:00,
2013-01-03 16:32:00,26.0,17.0,-100.00,South,190,2.0,5.0,68,-99.99,,,0.00,116.000000,,2013-01-04 00:32:00,
2013-01-03 16:42:00,26.0,17.0,-100.00,South,190,2.0,5.0,68,-99.99,,,0.00,116.000000,,2013-01-04 00:42:00,
2013-01-03 16:52:00,26.0,17.0,-100.00,South,190,2.0,5.0,68,-99.99,,,0.00,116.000000,,2013-01-04 00:52:00,
2013-01-03 17:22:00,21.0,14.0,-100.00,WSW,238,4.0,7.0,75,0.00,,,0.00,39.000000,,2013-01-04 01:22:00,
2013-01-03 17:32:00,21.0,14.0,-100.00,WSW,238,4.0,7.0,75,0.00,,,0.00,39.000000,,2013-01-04 01:32:00,
2013-01-03 17:42:00,21.0,14.0,-100.00,WSW,238,4.0,7.0,75,0.00,,,0.00,39.000000,,2013-01-04 01:42:00,
2013-01-03 17:52:00,21.0,14.0,-100.00,WSW,238,4.0,7.0,75,0.00,,,0.00,39.000000,,2013-01-04 01:52:00,
2013-01-03 18:22:00,21.0,13.0,-100.00,ENE,69,2.0,5.0,70,0.00,,,-99.99,1.000000,,2013-01-04 02:22:00,
2013-01-03 18:32:00,21.0,13.0,-100.00,ENE,69,2.0,5.0,70,0.00,,,-99.99,1.000000,,2013-01-04 02:32:00,
2013-01-03 18:42:00,21.0,13.0,-100.00,ENE,69,2.0,5.0,70,0.00,,,-99.99,1.000000,,2013-01-04 02:42:00,
2013-01-03 18:52:00,21.0,13.0,-100.00,ENE,69,2.0,5.0,70,0.00,,,-99.99,1.000000,,2013-01-04 02:52:00,
2013-01-03 19:22:00,20.0,15.0,-100.00,ESE,109,2.0,4.0,79,0.00,,,0.00,1.000000,,2013-01-04 03:22:00,
2013-01-03 19:32:00,20.0,15.0,-100.00,ESE,109,2.0,4.0,79,0.00,,,0.00,1.000000,,2013-01-04 03:32:00,
2013-01-03 19:42:00,20.0,15.0,-100.00,ESE,109,2.0,4.0,79,0.00,,,0.00,1.000000,,2013-01-04 03:42:00,
2013-01-03 19:52:00,20.0,15.0,-100.00,ESE,109,2.0,4.0,79,0.00,,,0.00,1.000000,,2013-01-04 03:52:00,
2013-01-03 20:22:00,20.0,12.0,-100.00,NW,316,2.0,4.0,72,0.00,,,0.00,1.000000,,2013-01-04 04:22:00,
2013-01-03 20:32:00,20.0,12.0,-100.00,NW,316,2.0,4.0,72,0.00,,,0.00,1.000000,,2013-01-04 04:32:00,
2013-01-03 20:42:00,20.0,12.0,-100.00,NW,316,2.0,4.0,72,0.00,,,0.00,1.000000,,2013-01-04 04:42:00,
2013-01-03 20:52:00,20.0,12.0,-100.00,NW,316,2.0,4.0,72,0.00,,,0.00,1.000000,,2013-01-04 04:52:00,
2013-01-03 21:22:00,18.0,15.0,-100.00,East,95,3.0,5.0,89,0.00,,,0.00,1.000000,,2013-01-04 05:22:00,
2013-01-03 21:33:00,18.0,15.0,-100.00,East,95,3.0,5.0,89,0.00,,,0.00,1.000000,,2013-01-04 05:33:00,
2013-01-03 21:42:00,18.0,15.0,-100.00,East,95,3.0,5.0,89,0.00,,,0.00,1.000000,,2013-01-04 05:42:00,
2013-01-03 21:52:00,18.0,15.0,-100.00,East,95,3.0,5.0,89,0.00,,,0.00,1.000000,,2013-01-04 05:52:00,
2013-01-03 22:22:00,16.0,13.0,-100.00,ENE,76,3.0,4.0,89,0.00,,,0.00,1.000000,,2013-01-04 06:22:00,
2013-01-03 22:32:00,16.0,13.0,-100.00,ENE,76,3.0,4.0,89,0.00,,,0.00,1.000000,,2013-01-04 06:32:00,
2013-01-03 22:42:00,16.0,13.0,-100.00,ENE,76,3.0,4.0,89,0.00,,,0.00,1.000000,,2013-01-04 06:42:00,
2013-01-03 22:52:00,16.0,13.0,-100.00,ENE,76,3.0,4.0,89,0.00,,,0.00,1.000000,,2013-01-04 06:52:00,
2013-01-03 23:22:00,16.0,14.0,-100.00,ENE,63,4.0,5.0,93,0.00,,,-99.99,1.000000,,2013-01-04 07:22:00,
2013-01-03 23:32:00,16.0,14.0,-100.00,ENE,63,4.0,5.0,93,0.00,,,-99.99,1.000000,,2013-01-04 07:32:00,
2013-01-03 23:42:00,16.0,14.0,-100.00,ENE,63,4.0,5.0,93,0.00,,,-99.99,1.000000,,2013-01-04 07:42:00,
2013-01-03 23:52:00,16.0,14.0,-100.00,ENE,63,4.0,5.0,93,0.00,,,-99.99,1.000000,,2013-01-04 07:52:00,